createdAt,value
2023-05-21T00:01:08.002Z,94386.69
2023-05-21T00:03:35.966Z,94392.72
2023-05-21T00:06:03.817Z,94387.97
2023-05-21T00:08:31.041Z,94388.25
2023-05-21T00:10:57.731Z,94388.25
2023-05-21T00:13:24.337Z,94391.50
2023-05-21T00:15:52.337Z,94385.97
2023-05-21T00:18:19.031Z,94389.91
2023-05-21T00:20:45.813Z,94379.03
2023-05-21T00:23:12.720Z,94383.53
2023-05-21T00:25:39.348Z,94382.94
2023-05-21T00:28:05.963Z,94381.59
2023-05-21T00:30:32.579Z,94375.97
2023-05-21T00:33:03.006Z,94383.16
2023-05-21T00:35:30.209Z,94379.22
2023-05-21T00:37:57.279Z,94375.69
2023-05-21T00:40:24.172Z,94378.13
2023-05-21T00:42:50.759Z,94361.53
2023-05-21T00:45:17.407Z,94363.41
2023-05-21T00:47:45.915Z,94372.25
2023-05-21T00:50:15.176Z,94357.56
2023-05-21T00:52:45.788Z,94361.41
2023-05-21T00:55:12.789Z,94371.47
2023-05-21T00:57:39.856Z,94365.84
2023-05-21T01:00:08.909Z,94363.97
2023-05-21T01:02:37.311Z,94363.47
2023-05-21T01:05:06.069Z,94357.31
2023-05-21T01:07:35.735Z,94364.81
2023-05-21T01:10:04.063Z,94379.31
2023-05-21T01:12:32.816Z,94368.56
2023-05-21T01:15:00.914Z,94370.91
2023-05-21T01:17:29.708Z,94365.25
2023-05-21T01:19:58.210Z,94360.94
2023-05-21T01:22:26.041Z,94366.66
2023-05-21T01:24:55.565Z,94362.06
2023-05-21T01:27:22.623Z,94362.78
2023-05-21T01:29:49.539Z,94355.34
2023-05-21T01:32:26.693Z,94358.88
2023-05-21T01:34:59.709Z,94358.09
2023-05-21T01:37:31.430Z,94363.78
2023-05-21T01:40:05.484Z,94357.66
2023-05-21T01:42:34.799Z,94371.16
2023-05-21T01:45:06.207Z,94362.16
2023-05-21T01:47:33.314Z,94356.34
2023-05-21T01:50:01.451Z,94360.94
2023-05-21T01:52:28.110Z,94365.53
2023-05-21T01:54:56.451Z,94358.19
2023-05-21T01:57:24.539Z,94362.50
2023-05-21T01:59:53.334Z,94354.00
2023-05-21T02:02:20.140Z,94361.59
2023-05-21T02:04:46.835Z,94358.78
2023-05-21T02:07:15.134Z,94368.25
2023-05-21T02:09:41.804Z,94354.31
2023-05-21T02:12:08.628Z,94351.25
2023-05-21T02:14:38.379Z,94350.34
2023-05-21T02:17:05.753Z,94350.25
2023-05-21T02:19:32.563Z,94338.03
2023-05-21T02:21:59.322Z,94351.44
2023-05-21T02:24:25.961Z,94330.19
2023-05-21T02:26:52.977Z,94336.28
2023-05-21T02:29:19.685Z,94348.25
2023-05-21T02:31:47.715Z,94347.56
2023-05-21T02:34:14.372Z,94335.22
2023-05-21T02:36:41.621Z,94336.03
2023-05-21T02:39:08.424Z,94341.06
2023-05-21T02:41:35.124Z,94336.88
2023-05-21T02:44:01.810Z,94346.41
2023-05-21T02:46:28.616Z,94338.28
2023-05-21T02:48:56.790Z,94341.31
2023-05-21T02:51:23.522Z,94338.84
2023-05-21T02:53:50.196Z,94328.66
2023-05-21T02:56:17.382Z,94331.13
2023-05-21T02:58:44.199Z,94333.41
2023-05-21T03:01:10.945Z,94336.19
2023-05-21T03:03:37.813Z,94337.34
2023-05-21T03:06:06.062Z,94335.66
2023-05-21T03:08:32.932Z,94346.47
2023-05-21T03:10:59.838Z,94334.19
2023-05-21T03:13:26.575Z,94329.06
2023-05-21T03:15:56.426Z,94323.44
2023-05-21T03:18:23.127Z,94326.94
2023-05-21T03:20:49.889Z,94335.34
2023-05-21T03:23:18.053Z,94328.34
2023-05-21T03:25:46.098Z,94329.09
2023-05-21T03:28:12.878Z,94328.81
2023-05-21T03:30:39.576Z,94332.44
2023-05-21T03:33:06.591Z,94321.50
2023-05-21T03:35:33.567Z,94329.28
2023-05-21T03:38:00.542Z,94313.41
2023-05-21T03:40:28.593Z,94319.25
2023-05-21T03:42:55.349Z,94316.59
2023-05-21T03:45:22.129Z,94308.63
2023-05-21T03:47:49.432Z,94312.31
2023-05-21T03:50:16.895Z,94312.84
2023-05-21T03:52:43.587Z,94317.38
2023-05-21T03:55:10.391Z,94318.47
2023-05-21T03:57:39.315Z,94320.03
2023-05-21T04:00:08.933Z,94315.00
2023-05-21T04:02:35.922Z,94327.06
2023-05-21T04:05:03.622Z,94317.91
2023-05-21T04:07:30.306Z,94323.31
2023-05-21T04:09:57.004Z,94308.66
2023-05-21T04:12:23.677Z,94323.16
2023-05-21T04:14:51.706Z,94327.81
2023-05-21T04:17:19.239Z,94325.69
2023-05-21T04:19:45.912Z,94325.38
2023-05-21T04:22:12.566Z,94326.72
2023-05-21T04:24:39.265Z,94336.56
2023-05-21T04:27:06.058Z,94332.38
2023-05-21T04:29:32.702Z,94333.13
2023-05-21T04:32:00.737Z,94332.16
2023-05-21T04:34:27.368Z,94337.91
2023-05-21T04:36:54.397Z,94330.53
2023-05-21T04:39:21.023Z,94322.75
2023-05-21T04:41:48.462Z,94331.28
2023-05-21T04:44:15.447Z,94338.41
2023-05-21T04:46:42.735Z,94348.78
2023-05-21T04:49:11.583Z,94346.88
2023-05-21T04:51:38.249Z,94334.00
2023-05-21T04:54:04.942Z,94337.41
2023-05-21T04:56:32.018Z,94331.50
2023-05-21T04:58:58.956Z,94351.47
2023-05-21T05:01:27.256Z,94342.34
2023-05-21T05:03:54.264Z,94338.06
2023-05-21T05:06:22.366Z,94338.28
2023-05-21T05:08:49.332Z,94326.50
2023-05-21T05:11:15.972Z,94344.06
2023-05-21T05:13:42.868Z,94341.97
2023-05-21T05:16:09.750Z,94343.28
2023-05-21T05:18:36.703Z,94343.81
2023-05-21T05:21:03.736Z,94352.88
2023-05-21T05:23:31.725Z,94348.88
2023-05-21T05:25:58.347Z,94352.41
2023-05-21T05:28:24.974Z,94363.47
2023-05-21T05:30:51.684Z,94346.28
2023-05-21T05:33:18.382Z,94363.44
2023-05-21T05:35:45.054Z,94370.88
2023-05-21T05:38:11.759Z,94380.25
2023-05-21T05:40:39.852Z,94367.91
2023-05-21T05:43:06.701Z,94365.06
2023-05-21T05:45:33.383Z,94362.59
2023-05-21T05:48:00.048Z,94356.97
2023-05-21T05:50:27.583Z,94360.31
2023-05-21T05:52:54.208Z,94361.28
2023-05-21T05:55:22.026Z,94370.88
2023-05-21T05:57:50.059Z,94361.56
2023-05-21T06:00:17.579Z,94361.28
2023-05-21T06:02:44.354Z,94381.59
2023-05-21T06:05:11.453Z,94350.38
2023-05-21T06:07:38.764Z,94364.97
2023-05-21T06:10:06.256Z,94368.44
2023-05-21T06:12:32.879Z,94357.63
2023-05-21T06:15:01.783Z,94361.91
2023-05-21T06:17:28.498Z,94357.56
2023-05-21T06:19:55.224Z,94363.13
2023-05-21T06:22:24.849Z,94361.75
2023-05-21T06:24:52.609Z,94362.28
2023-05-21T06:27:19.251Z,94353.13
2023-05-21T06:29:45.890Z,94357.06
2023-05-21T06:32:13.879Z,94357.34
2023-05-21T06:34:40.991Z,94356.50
2023-05-21T06:37:08.000Z,94354.19
2023-05-21T06:39:34.664Z,94351.50
2023-05-21T06:42:01.851Z,94356.44
2023-05-21T06:44:28.594Z,94359.59
2023-05-21T06:46:55.443Z,94368.34
2023-05-21T06:49:23.460Z,94368.69
2023-05-21T06:51:50.127Z,94366.53
2023-05-21T06:54:16.934Z,94367.56
2023-05-21T06:56:43.571Z,94377.56
2023-05-21T06:59:14.566Z,94373.69
2023-05-21T07:01:42.670Z,94376.47
2023-05-21T07:04:09.646Z,94379.72
2023-05-21T07:06:38.089Z,94387.84
2023-05-21T07:09:05.992Z,94386.16
2023-05-21T07:11:32.811Z,94372.47
2023-05-21T07:14:03.962Z,94373.22
2023-05-21T07:16:30.658Z,94370.97
2023-05-21T07:18:57.429Z,94373.22
2023-05-21T07:21:24.370Z,94377.59
2023-05-21T07:23:52.515Z,94365.66
2023-05-21T07:26:19.146Z,94374.66
2023-05-21T07:28:46.013Z,94353.00
2023-05-21T07:31:13.174Z,94361.28
2023-05-21T07:33:40.057Z,94355.94
2023-05-21T07:36:07.160Z,94354.66
2023-05-21T07:38:34.631Z,94359.00
2023-05-21T07:41:02.691Z,94351.03
2023-05-21T07:43:29.345Z,94359.50
2023-05-21T07:45:56.054Z,94359.97
2023-05-21T07:48:22.978Z,94366.97
2023-05-21T07:50:50.116Z,94354.59
2023-05-21T07:53:16.814Z,94360.06
2023-05-21T07:55:47.729Z,94363.81
2023-05-21T07:58:17.696Z,94369.16
2023-05-21T08:00:46.893Z,94373.31
2023-05-21T08:03:16.511Z,94370.50
2023-05-21T08:05:44.881Z,94366.88
2023-05-21T08:08:12.869Z,94370.94
2023-05-21T08:10:39.542Z,94376.97
2023-05-21T08:13:06.308Z,94378.50
2023-05-21T08:15:34.463Z,94374.97
2023-05-21T08:18:01.284Z,94361.56
2023-05-21T08:20:29.081Z,94375.00
2023-05-21T08:22:55.755Z,94377.31
2023-05-21T08:25:25.113Z,94373.28
2023-05-21T08:27:52.514Z,94367.97
2023-05-21T08:30:19.517Z,94376.13
2023-05-21T08:32:47.642Z,94380.81
2023-05-21T08:35:14.353Z,94373.94
2023-05-21T08:37:41.070Z,94361.56
2023-05-21T08:40:09.810Z,94373.22
2023-05-21T08:42:42.389Z,94371.78
2023-05-21T08:45:11.675Z,94377.72
2023-05-21T08:47:41.725Z,94359.88
2023-05-21T08:50:11.806Z,94358.78
2023-05-21T08:52:38.534Z,94362.91
2023-05-21T08:55:06.278Z,94356.25
2023-05-21T08:57:33.370Z,94370.25
2023-05-21T09:00:01.921Z,94368.94
2023-05-21T09:02:34.242Z,94360.09
2023-05-21T09:05:03.246Z,94361.00
2023-05-21T09:07:34.372Z,94357.81
2023-05-21T09:10:05.139Z,94372.38
2023-05-21T09:12:32.069Z,94353.59
2023-05-21T09:15:00.376Z,94364.31
2023-05-21T09:17:27.339Z,94367.69
2023-05-21T09:20:14.672Z,94373.91
2023-05-21T09:22:44.875Z,94372.41
2023-05-21T09:25:12.579Z,94380.50
2023-05-21T09:27:39.994Z,94381.41
2023-05-21T09:30:10.940Z,94378.44
2023-05-21T09:32:38.114Z,94368.47
2023-05-21T09:35:09.652Z,94383.72
2023-05-21T09:37:40.190Z,94384.34
2023-05-21T09:40:16.057Z,94384.00
2023-05-21T09:42:45.634Z,94382.94
2023-05-21T09:45:12.776Z,94375.59
2023-05-21T09:47:43.716Z,94374.81
2023-05-21T09:50:11.634Z,94382.69
2023-05-21T09:52:41.919Z,94379.25
2023-05-21T09:55:12.647Z,94376.34
2023-05-21T09:57:44.561Z,94381.00
2023-05-21T10:00:21.347Z,94383.06
2023-05-21T10:02:49.120Z,94387.63
2023-05-21T10:05:17.148Z,94381.94
2023-05-21T10:07:52.786Z,94380.97
2023-05-21T10:10:21.830Z,94385.56
2023-05-21T10:12:54.694Z,94381.31
2023-05-21T10:15:24.999Z,94378.41
2023-05-21T10:17:52.433Z,94371.94
2023-05-21T10:20:20.867Z,94378.16
2023-05-21T10:22:47.977Z,94377.31
2023-05-21T10:25:15.694Z,94381.03
2023-05-21T10:27:42.522Z,94380.78
2023-05-21T10:30:12.179Z,94371.72
2023-05-21T10:32:40.652Z,94376.81
2023-05-21T10:35:09.253Z,94366.94
2023-05-21T10:37:36.618Z,94363.03
2023-05-21T10:40:04.558Z,94356.13
2023-05-21T10:43:13.067Z,94357.91
2023-05-21T10:45:59.325Z,94354.09
2023-05-21T10:48:40.889Z,94341.69
2023-05-21T10:51:18.754Z,94354.34
2023-05-21T10:54:16.908Z,94355.00
2023-05-21T10:56:48.897Z,94352.69
2023-05-21T10:59:22.414Z,94344.91
2023-05-21T11:01:53.112Z,94344.00
2023-05-21T11:04:22.693Z,94350.06
2023-05-21T11:06:49.716Z,94355.50
2023-05-21T11:09:16.413Z,94342.59
2023-05-21T11:11:46.270Z,94343.84
2023-05-21T11:14:36.803Z,94338.19
2023-05-21T11:17:11.148Z,94340.25
2023-05-21T11:19:39.595Z,94343.31
2023-05-21T11:22:11.335Z,94339.81
2023-05-21T11:24:39.636Z,94349.59
2023-05-21T11:27:07.090Z,94338.06
2023-05-21T11:29:44.940Z,94341.94
2023-05-21T11:32:15.298Z,94343.97
2023-05-21T11:34:45.965Z,94343.72
2023-05-21T11:37:25.113Z,94344.16
2023-05-21T11:39:51.843Z,94341.78
2023-05-21T11:42:28.687Z,94343.81
2023-05-21T11:44:58.053Z,94344.59
2023-05-21T11:47:32.232Z,94336.13
2023-05-21T11:50:00.572Z,94342.50
2023-05-21T11:52:29.795Z,94339.75
2023-05-21T11:54:57.568Z,94328.53
2023-05-21T11:57:29.151Z,94333.44
2023-05-21T11:59:58.465Z,94327.44
2023-05-21T12:02:30.777Z,94337.38
2023-05-21T12:05:00.786Z,94337.97
2023-05-21T12:07:29.737Z,94328.53
2023-05-21T12:09:56.652Z,94327.31
2023-05-21T12:12:27.184Z,94323.81
2023-05-21T12:14:56.071Z,94318.47
2023-05-21T12:17:24.618Z,94328.31
2023-05-21T12:20:01.718Z,94325.03
2023-05-21T12:22:29.804Z,94323.16
2023-05-21T12:24:58.268Z,94317.78
2023-05-21T12:27:25.033Z,94317.66
2023-05-21T12:29:53.102Z,94327.38
2023-05-21T12:32:21.016Z,94315.78
2023-05-21T12:34:49.713Z,94318.25
2023-05-21T12:37:21.922Z,94318.19
2023-05-21T12:39:49.841Z,94305.50
2023-05-21T12:42:17.279Z,94306.06
2023-05-21T12:44:45.266Z,94312.41
2023-05-21T12:47:14.920Z,94307.66
2023-05-21T12:49:42.596Z,94307.84
2023-05-21T12:52:10.705Z,94307.75
2023-05-21T12:54:40.959Z,94307.31
2023-05-21T12:57:09.159Z,94307.16
2023-05-21T12:59:49.712Z,94300.22
2023-05-21T13:02:19.790Z,94302.34
2023-05-21T13:04:47.223Z,94308.66
2023-05-21T13:07:14.328Z,94297.84
2023-05-21T13:09:44.925Z,94297.53
2023-05-21T13:12:12.515Z,94289.75
2023-05-21T13:14:39.371Z,94297.13
2023-05-21T13:17:06.538Z,94289.69
2023-05-21T13:19:33.215Z,94291.34
2023-05-21T13:21:59.881Z,94290.06
2023-05-21T13:24:26.557Z,94283.97
2023-05-21T13:26:54.746Z,94280.78
2023-05-21T13:29:21.417Z,94282.63
2023-05-21T13:31:48.049Z,94278.06
2023-05-21T13:34:14.736Z,94288.94
2023-05-21T13:36:41.475Z,94289.47
2023-05-21T13:39:08.179Z,94276.47
2023-05-21T13:41:34.888Z,94278.69
2023-05-21T13:44:03.022Z,94281.56
2023-05-21T13:46:29.983Z,94277.56
2023-05-21T13:48:57.002Z,94260.91
2023-05-21T13:51:38.119Z,94270.59
2023-05-21T13:54:05.948Z,94269.06
2023-05-21T13:56:33.812Z,94259.84
2023-05-21T13:59:01.570Z,94251.75
2023-05-21T14:01:29.744Z,94251.34
2023-05-21T14:03:56.515Z,94258.28
2023-05-21T14:06:23.233Z,94260.94
2023-05-21T14:08:49.923Z,94262.19
2023-05-21T14:11:16.592Z,94258.41
2023-05-21T14:13:43.315Z,94248.91
2023-05-21T14:16:10.037Z,94253.03
2023-05-21T14:18:38.102Z,94255.38
2023-05-21T14:21:04.810Z,94245.25
2023-05-21T14:23:31.542Z,94253.72
2023-05-21T14:25:58.324Z,94248.88
2023-05-21T14:28:25.124Z,94250.72
2023-05-21T14:30:52.069Z,94249.69
2023-05-21T14:33:18.852Z,94248.44
2023-05-21T14:35:47.920Z,94244.56
2023-05-21T14:38:14.612Z,94246.94
2023-05-21T14:40:41.765Z,94239.31
2023-05-21T14:43:08.535Z,94243.88
2023-05-21T14:45:35.661Z,94233.28
2023-05-21T14:48:08.218Z,94241.56
2023-05-21T14:50:35.572Z,94238.03
2023-05-21T14:53:05.987Z,94241.38
2023-05-21T14:55:37.197Z,94236.06
2023-05-21T14:58:04.428Z,94230.63
2023-05-21T15:00:31.639Z,94240.59
2023-05-21T15:02:58.647Z,94229.47
2023-05-21T15:05:27.624Z,94235.44
2023-05-21T15:07:56.040Z,94228.41
2023-05-21T15:10:24.526Z,94237.63
2023-05-21T15:12:51.347Z,94239.06
2023-05-21T15:15:20.718Z,94241.94
2023-05-21T15:17:48.112Z,94245.63
2023-05-21T15:20:15.018Z,94247.47
2023-05-21T15:22:41.891Z,94241.97
2023-05-21T15:25:12.067Z,94236.38
2023-05-21T15:27:40.184Z,94239.44
2023-05-21T15:30:07.865Z,94233.78
2023-05-21T15:32:34.573Z,94238.59
2023-05-21T15:35:01.524Z,94231.81
2023-05-21T15:37:33.157Z,94229.91
2023-05-21T15:39:59.999Z,94233.06
2023-05-21T15:42:26.727Z,94236.03
2023-05-21T15:44:54.760Z,94227.66
2023-05-21T15:47:21.453Z,94228.13
2023-05-21T15:49:48.158Z,94224.38
2023-05-21T15:52:14.795Z,94225.09
2023-05-21T15:54:41.469Z,94220.16
2023-05-21T15:57:08.141Z,94213.94
2023-05-21T15:59:34.798Z,94217.91
2023-05-21T16:02:02.819Z,94222.06
2023-05-21T16:04:29.530Z,94210.22
2023-05-21T16:06:56.163Z,94212.31
2023-05-21T16:09:22.751Z,94206.13
2023-05-21T16:11:49.345Z,94215.84
2023-05-21T16:14:15.984Z,94212.09
2023-05-21T16:16:42.741Z,94205.63
2023-05-21T16:19:10.912Z,94211.03
2023-05-21T16:21:39.587Z,94217.09
2023-05-21T16:24:06.753Z,94223.06
2023-05-21T16:26:33.358Z,94219.09
2023-05-21T16:29:02.283Z,94227.03
2023-05-21T16:31:29.213Z,94211.16
2023-05-21T16:33:55.903Z,94216.09
2023-05-21T16:36:23.910Z,94221.03
2023-05-21T16:38:50.554Z,94214.34
2023-05-21T16:41:17.213Z,94225.59
2023-05-21T16:43:43.914Z,94222.59
2023-05-21T16:46:10.739Z,94223.75
2023-05-21T16:48:39.291Z,94226.31
2023-05-21T16:51:06.152Z,94226.00
2023-05-21T16:53:34.280Z,94223.00
2023-05-21T16:56:00.936Z,94228.41
2023-05-21T16:58:27.618Z,94227.47
2023-05-21T17:00:54.324Z,94209.22
2023-05-21T17:03:21.265Z,94213.66
2023-05-21T17:05:48.103Z,94220.03
2023-05-21T17:08:14.783Z,94217.66
2023-05-21T17:10:42.770Z,94219.97
2023-05-21T17:13:21.681Z,94214.59
2023-05-21T17:15:50.680Z,94215.41
2023-05-21T17:18:17.622Z,94215.41
2023-05-21T17:20:44.258Z,94206.84
2023-05-21T17:23:11.882Z,94216.81
2023-05-21T17:25:39.244Z,94220.31
2023-05-21T17:28:07.752Z,94221.41
2023-05-21T17:30:34.403Z,94226.00
2023-05-21T17:33:03.615Z,94228.22
2023-05-21T17:35:30.676Z,94234.41
2023-05-21T17:37:57.433Z,94237.41
2023-05-21T17:40:25.032Z,94233.75
2023-05-21T17:42:52.148Z,94232.03
2023-05-21T17:45:22.823Z,94236.47
2023-05-21T17:47:49.593Z,94225.84
2023-05-21T17:50:16.555Z,94237.09
2023-05-21T17:52:43.187Z,94240.91
2023-05-21T17:55:10.535Z,94240.09
2023-05-21T17:57:37.382Z,94243.00
2023-05-21T18:00:06.634Z,94237.06
2023-05-21T18:02:35.232Z,94242.53
2023-05-21T18:05:01.910Z,94244.69
2023-05-21T18:07:28.556Z,94246.44
2023-05-21T18:09:55.186Z,94248.66
2023-05-21T18:12:21.854Z,94246.28
2023-05-21T18:14:48.442Z,94253.94
2023-05-21T18:17:15.079Z,94249.19
2023-05-21T18:19:42.989Z,94254.84
2023-05-21T18:22:09.622Z,94255.78
2023-05-21T18:24:38.082Z,94251.66
2023-05-21T18:27:04.886Z,94260.53
2023-05-21T18:29:31.679Z,94256.09
2023-05-21T18:31:58.362Z,94260.38
2023-05-21T18:34:24.996Z,94258.81
2023-05-21T18:36:54.496Z,94254.53
2023-05-21T18:39:24.564Z,94259.44
2023-05-21T18:41:55.794Z,94261.34
2023-05-21T18:44:29.665Z,94253.66
2023-05-21T18:46:57.742Z,94263.53
2023-05-21T18:49:27.360Z,94265.75
2023-05-21T18:51:55.324Z,94261.00
2023-05-21T18:54:21.966Z,94261.31
2023-05-21T18:56:48.607Z,94275.75
2023-05-21T18:59:15.262Z,94272.56
2023-05-21T19:01:42.056Z,94270.19
2023-05-21T19:04:08.818Z,94278.28
2023-05-21T19:06:36.091Z,94277.47
2023-05-21T19:09:04.090Z,94273.97
2023-05-21T19:11:34.294Z,94286.03
2023-05-21T19:14:01.030Z,94282.69
2023-05-21T19:16:27.720Z,94287.22
2023-05-21T19:18:54.524Z,94288.97
2023-05-21T19:21:24.297Z,94285.97
2023-05-21T19:23:53.681Z,94289.78
2023-05-21T19:26:22.669Z,94290.41
2023-05-21T19:28:53.311Z,94289.00
2023-05-21T19:31:20.547Z,94302.88
2023-05-21T19:33:47.356Z,94307.78
2023-05-21T19:36:14.447Z,94304.91
2023-05-21T19:38:46.382Z,94304.63
2023-05-21T19:41:13.209Z,94309.69
2023-05-21T19:43:43.662Z,94310.97
2023-05-21T19:46:10.498Z,94320.31
2023-05-21T19:48:37.444Z,94316.00
2023-05-21T19:51:04.371Z,94316.97
2023-05-21T19:53:31.205Z,94323.03
2023-05-21T19:55:57.949Z,94325.31
2023-05-21T19:58:26.865Z,94318.22
2023-05-21T20:00:55.859Z,94329.06
2023-05-21T20:03:24.241Z,94320.84
2023-05-21T20:05:51.095Z,94326.84
2023-05-21T20:08:17.763Z,94324.81
2023-05-21T20:10:44.506Z,94332.78
2023-05-21T20:13:11.182Z,94316.03
2023-05-21T20:15:37.825Z,94324.81
2023-05-21T20:18:06.547Z,94316.09
2023-05-21T20:20:37.175Z,94326.53
2023-05-21T20:23:04.050Z,94326.63
2023-05-21T20:25:33.630Z,94325.19
2023-05-21T20:28:03.989Z,94324.44
2023-05-21T20:30:32.970Z,94315.31
2023-05-21T20:33:01.605Z,94317.56
2023-05-21T20:35:30.231Z,94324.06
2023-05-21T20:37:57.006Z,94328.81
2023-05-21T20:40:23.694Z,94314.63
2023-05-21T20:42:53.014Z,94320.06
2023-05-21T20:45:23.588Z,94334.94
2023-05-21T20:47:50.316Z,94319.81
2023-05-21T20:50:25.821Z,94336.28
2023-05-21T20:52:53.862Z,94338.91
2023-05-21T20:55:21.139Z,94339.00
2023-05-21T20:57:50.807Z,94335.63
2023-05-21T21:00:18.094Z,94339.13
2023-05-21T21:02:45.003Z,94349.00
2023-05-21T21:05:12.648Z,94339.94
2023-05-21T21:07:39.325Z,94350.69
2023-05-21T21:10:08.555Z,94354.41
2023-05-21T21:12:35.169Z,94354.53
2023-05-21T21:15:01.791Z,94353.94
2023-05-21T21:17:28.537Z,94349.91
2023-05-21T21:19:55.356Z,94353.31
2023-05-21T21:22:22.159Z,94360.25
2023-05-21T21:24:48.890Z,94367.53
2023-05-21T21:27:16.863Z,94372.19
2023-05-21T21:29:44.160Z,94360.16
2023-05-21T21:32:10.866Z,94362.44
2023-05-21T21:34:37.515Z,94359.66
2023-05-21T21:37:04.544Z,94364.72
2023-05-21T21:39:31.137Z,94375.09
2023-05-21T21:41:57.831Z,94370.22
2023-05-21T21:44:25.927Z,94368.91
2023-05-21T21:46:52.581Z,94374.81
2023-05-21T21:49:19.396Z,94374.47
2023-05-21T21:51:49.010Z,94373.28
2023-05-21T21:54:15.732Z,94368.94
2023-05-21T21:56:42.446Z,94365.13
2023-05-21T21:59:09.143Z,94371.81
2023-05-21T22:01:37.354Z,94369.09
2023-05-21T22:04:04.257Z,94364.94
2023-05-21T22:06:31.301Z,94373.97
2023-05-21T22:08:57.938Z,94370.34
2023-05-21T22:11:24.553Z,94375.53
2023-05-21T22:13:51.185Z,94372.34
2023-05-21T22:16:17.826Z,94365.16
2023-05-21T22:18:46.085Z,94377.81
2023-05-21T22:21:14.275Z,94376.44
2023-05-21T22:23:41.239Z,94370.38
2023-05-21T22:26:09.011Z,94371.06
2023-05-21T22:28:35.774Z,94371.44
2023-05-21T22:31:02.600Z,94384.28
2023-05-21T22:33:29.387Z,94384.06
2023-05-21T22:35:58.045Z,94384.28
2023-05-21T22:38:24.651Z,94379.19
2023-05-21T22:40:51.378Z,94375.22
2023-05-21T22:43:18.161Z,94390.03
2023-05-21T22:45:44.797Z,94394.03
2023-05-21T22:48:11.465Z,94379.50
2023-05-21T22:50:39.136Z,94382.59
2023-05-21T22:53:07.296Z,94386.88
2023-05-21T22:55:33.906Z,94385.47
2023-05-21T22:58:00.720Z,94382.91
2023-05-21T23:00:27.438Z,94386.88
2023-05-21T23:02:54.822Z,94396.69
2023-05-21T23:05:21.793Z,94374.06
2023-05-21T23:07:48.519Z,94384.16
2023-05-21T23:10:16.814Z,94376.94
2023-05-21T23:12:43.453Z,94374.53
2023-05-21T23:15:10.990Z,94362.72
2023-05-21T23:17:37.861Z,94367.91
2023-05-21T23:20:05.822Z,94373.28
2023-05-21T23:22:32.722Z,94375.88
2023-05-21T23:24:59.549Z,94374.56
2023-05-21T23:27:27.593Z,94377.53
2023-05-21T23:29:54.221Z,94383.13
2023-05-21T23:32:20.893Z,94385.88
2023-05-21T23:34:48.277Z,94378.91
2023-05-21T23:37:15.158Z,94378.72
2023-05-21T23:39:41.963Z,94375.34
2023-05-21T23:42:08.644Z,94379.63
2023-05-21T23:44:36.640Z,94382.16
2023-05-21T23:47:03.390Z,94388.25
2023-05-21T23:49:30.021Z,94393.09
2023-05-21T23:51:56.772Z,94394.97
2023-05-21T23:54:23.425Z,94373.06
2023-05-21T23:56:50.137Z,94378.06
2023-05-21T23:59:18.334Z,94380.41
